createdAt,value
2019-05-23T00:02:30.185Z,10.20
2019-05-23T00:05:17.309Z,10.20
2019-05-23T00:07:47.868Z,10.10
2019-05-23T00:10:22.230Z,10.00
2019-05-23T00:13:02.170Z,10.00
2019-05-23T00:15:35.060Z,10.00
2019-05-23T00:18:06.254Z,9.90
2019-05-23T00:20:36.863Z,10.00
2019-05-23T00:23:08.611Z,10.00
2019-05-23T00:25:38.304Z,9.90
2019-05-23T00:28:09.672Z,9.90
2019-05-23T00:30:46.972Z,9.90
2019-05-23T00:33:18.561Z,9.90
2019-05-23T00:35:48.443Z,9.80
2019-05-23T00:38:19.173Z,9.80
2019-05-23T00:40:50.817Z,9.70
2019-05-23T00:43:22.517Z,9.70
2019-05-23T00:45:53.976Z,9.60
2019-05-23T00:48:25.135Z,9.60
2019-05-23T00:50:55.244Z,9.60
2019-05-23T00:53:26.199Z,9.60
2019-05-23T00:55:56.725Z,9.60
2019-05-23T00:58:26.603Z,9.60
2019-05-23T01:00:58.050Z,9.60
2019-05-23T01:03:29.586Z,9.60
2019-05-23T01:06:00.518Z,9.60
2019-05-23T01:08:31.807Z,9.60
2019-05-23T01:11:02.744Z,9.70
2019-05-23T01:13:33.532Z,9.70
2019-05-23T01:16:04.210Z,9.60
2019-05-23T01:18:34.130Z,9.50
2019-05-23T01:21:24.462Z,9.50
2019-05-23T01:24:01.753Z,9.60
2019-05-23T01:26:31.973Z,9.60
2019-05-23T01:29:03.288Z,9.50
2019-05-23T01:31:37.897Z,9.50
2019-05-23T01:34:09.304Z,9.50
2019-05-23T01:36:39.516Z,9.40
2019-05-23T01:39:12.064Z,9.50
2019-05-23T01:41:43.184Z,9.40
2019-05-23T01:44:13.084Z,9.40
2019-05-23T01:46:43.613Z,9.40
2019-05-23T01:49:13.805Z,9.40
2019-05-23T01:51:44.774Z,9.50
2019-05-23T01:54:14.626Z,9.40
2019-05-23T01:56:44.732Z,9.30
2019-05-23T01:59:14.664Z,9.30
2019-05-23T02:01:45.334Z,9.40
2019-05-23T02:04:15.418Z,9.30
2019-05-23T02:06:45.709Z,9.40
2019-05-23T02:09:16.858Z,9.60
2019-05-23T02:11:47.420Z,9.60
2019-05-23T02:14:17.277Z,9.60
2019-05-23T02:16:48.121Z,9.50
2019-05-23T02:19:19.535Z,9.50
2019-05-23T02:21:50.124Z,9.40
2019-05-23T02:24:21.472Z,9.50
2019-05-23T02:26:51.554Z,9.40
2019-05-23T02:29:21.657Z,9.40
2019-05-23T02:31:51.400Z,9.30
2019-05-23T02:34:22.065Z,9.30
2019-05-23T02:36:52.054Z,9.20
2019-05-23T02:39:39.652Z,9.30
2019-05-23T02:42:17.197Z,9.30
2019-05-23T02:44:47.500Z,9.30
2019-05-23T02:47:33.819Z,9.40
2019-05-23T02:50:06.786Z,9.40
2019-05-23T02:52:42.531Z,9.30
2019-05-23T02:55:23.726Z,9.30
2019-05-23T02:58:05.790Z,9.20
2019-05-23T03:01:01.309Z,9.20
2019-05-23T03:03:33.289Z,9.20
2019-05-23T03:06:06.093Z,9.20
2019-05-23T03:08:37.104Z,9.30
2019-05-23T03:11:29.238Z,9.20
2019-05-23T03:13:59.775Z,9.30
2019-05-23T03:16:31.806Z,9.20
2019-05-23T03:19:14.129Z,9.20
2019-05-23T03:21:45.826Z,9.20
2019-05-23T03:24:15.907Z,9.20
2019-05-23T03:27:01.956Z,9.20
2019-05-23T03:29:34.091Z,9.30
2019-05-23T03:32:05.994Z,9.40
2019-05-23T03:34:37.575Z,9.40
2019-05-23T03:37:07.968Z,9.50
2019-05-23T03:39:37.925Z,9.60
2019-05-23T03:42:08.473Z,9.60
2019-05-23T03:44:39.421Z,9.60
2019-05-23T03:47:10.876Z,9.60
2019-05-23T03:49:42.336Z,9.60
2019-05-23T03:52:15.357Z,9.60
2019-05-23T03:54:47.025Z,9.70
2019-05-23T03:57:18.834Z,9.70
2019-05-23T03:59:50.557Z,9.70
2019-05-23T04:02:23.176Z,9.80
2019-05-23T04:04:56.391Z,9.90
2019-05-23T04:07:26.382Z,10.00
2019-05-23T04:09:56.355Z,10.00
2019-05-23T04:12:26.906Z,10.00
2019-05-23T04:14:57.436Z,10.20
2019-05-23T04:17:27.583Z,10.20
2019-05-23T04:19:57.338Z,10.30
2019-05-23T04:22:27.850Z,10.30
2019-05-23T04:25:01.916Z,10.30
2019-05-23T04:27:29.565Z,10.50
2019-05-23T04:29:59.341Z,10.60
2019-05-23T04:32:29.153Z,10.90
2019-05-23T04:34:59.220Z,11.10
2019-05-23T04:37:29.976Z,11.20
2019-05-23T04:40:01.299Z,11.10
2019-05-23T04:42:31.896Z,11.20
2019-05-23T04:45:02.346Z,11.40
2019-05-23T04:47:32.112Z,11.70
2019-05-23T04:50:01.879Z,11.80
2019-05-23T04:52:31.667Z,11.90
2019-05-23T04:55:02.469Z,12.10
2019-05-23T04:57:32.699Z,12.10
2019-05-23T05:00:03.082Z,12.10
2019-05-23T05:02:32.947Z,12.20
2019-05-23T05:05:03.554Z,12.40
2019-05-23T05:07:33.546Z,12.40
2019-05-23T05:10:03.819Z,12.50
2019-05-23T05:12:34.175Z,12.70
2019-05-23T05:15:05.154Z,13.00
2019-05-23T05:17:35.814Z,12.90
2019-05-23T05:20:06.949Z,12.70
2019-05-23T05:22:36.638Z,12.70
2019-05-23T05:25:08.599Z,12.80
2019-05-23T05:27:38.762Z,12.80
2019-05-23T05:30:10.321Z,12.90
2019-05-23T05:32:45.505Z,13.10
2019-05-23T05:35:12.557Z,13.20
2019-05-23T05:37:42.492Z,13.40
2019-05-23T05:40:19.021Z,13.60
2019-05-23T05:42:51.430Z,13.90
2019-05-23T05:45:22.083Z,14.10
2019-05-23T05:47:51.884Z,14.40
2019-05-23T05:50:22.384Z,14.60
2019-05-23T05:52:52.653Z,14.40
2019-05-23T05:55:22.926Z,14.10
2019-05-23T05:57:52.770Z,14.10
2019-05-23T06:00:29.836Z,14.00
2019-05-23T06:03:05.193Z,14.40
2019-05-23T06:05:49.994Z,15.00
2019-05-23T06:08:22.370Z,15.60
2019-05-23T06:10:52.616Z,16.00
2019-05-23T06:13:23.020Z,16.30
2019-05-23T06:15:53.679Z,16.10
2019-05-23T06:18:23.539Z,15.80
2019-05-23T06:20:57.581Z,15.30
2019-05-23T06:23:27.790Z,15.10
2019-05-23T06:25:59.450Z,15.40
2019-05-23T06:28:38.510Z,15.60
2019-05-23T06:31:10.271Z,15.80
2019-05-23T06:33:40.002Z,16.40
2019-05-23T06:36:10.474Z,16.70
2019-05-23T06:38:40.889Z,16.50
2019-05-23T06:41:11.056Z,16.80
2019-05-23T06:43:41.377Z,17.40
2019-05-23T06:46:21.149Z,18.00
2019-05-23T06:48:51.364Z,18.40
2019-05-23T06:51:23.393Z,18.70
2019-05-23T06:53:54.643Z,18.80
2019-05-23T06:56:24.706Z,18.70
2019-05-23T06:58:54.604Z,18.60
2019-05-23T07:01:24.551Z,18.30
2019-05-23T07:03:54.379Z,18.10
2019-05-23T07:06:24.981Z,18.00
2019-05-23T07:08:54.721Z,18.10
2019-05-23T07:11:25.300Z,17.70
2019-05-23T07:13:55.969Z,17.20
2019-05-23T07:16:26.391Z,17.00
2019-05-23T07:18:56.252Z,16.90
2019-05-23T07:21:25.999Z,17.20
2019-05-23T07:23:56.218Z,17.40
2019-05-23T07:26:26.050Z,17.60
2019-05-23T07:28:56.694Z,17.80
2019-05-23T07:31:27.045Z,18.10
2019-05-23T07:34:02.397Z,18.70
2019-05-23T07:36:29.474Z,19.10
2019-05-23T07:38:59.424Z,19.80
2019-05-23T07:41:29.415Z,20.50
2019-05-23T07:43:59.312Z,21.00
2019-05-23T07:46:30.070Z,21.50
2019-05-23T07:49:00.116Z,21.40
2019-05-23T07:51:30.009Z,21.40
2019-05-23T07:54:04.723Z,21.00
2019-05-23T07:56:36.632Z,20.50
2019-05-23T07:59:10.060Z,19.90
2019-05-23T08:01:45.501Z,19.60
2019-05-23T08:04:21.848Z,19.30
2019-05-23T08:06:50.679Z,19.40
2019-05-23T08:09:21.607Z,19.40
2019-05-23T08:11:51.811Z,19.50
2019-05-23T08:14:21.895Z,19.50
2019-05-23T08:16:52.342Z,19.20
2019-05-23T08:19:22.733Z,19.20
2019-05-23T08:21:52.532Z,19.20
2019-05-23T08:24:22.826Z,19.40
2019-05-23T08:26:55.011Z,19.90
2019-05-23T08:29:26.620Z,20.30
2019-05-23T08:31:56.730Z,20.20
2019-05-23T08:34:40.490Z,20.10
2019-05-23T08:36:59.337Z,20.30
2019-05-23T08:39:30.873Z,20.60
2019-05-23T08:42:01.134Z,20.80
2019-05-23T08:44:30.939Z,20.90
2019-05-23T08:47:01.763Z,20.80
2019-05-23T08:49:32.090Z,20.00
2019-05-23T08:52:02.088Z,20.20
2019-05-23T08:54:32.073Z,20.50
2019-05-23T08:57:02.776Z,20.10
2019-05-23T08:59:33.419Z,19.90
2019-05-23T09:02:03.778Z,20.20
2019-05-23T09:04:34.482Z,20.40
2019-05-23T09:07:04.814Z,20.40
2019-05-23T09:09:35.405Z,20.50
2019-05-23T09:12:06.580Z,19.60
2019-05-23T09:14:36.797Z,19.80
2019-05-23T09:17:07.202Z,20.00
2019-05-23T09:19:36.833Z,20.40
2019-05-23T09:22:06.590Z,20.70
2019-05-23T09:24:36.639Z,20.80
2019-05-23T09:27:06.504Z,20.70
2019-05-23T09:29:36.227Z,20.60
2019-05-23T09:32:06.718Z,20.70
2019-05-23T09:34:36.767Z,20.90
2019-05-23T09:37:08.162Z,21.30
2019-05-23T09:39:39.872Z,21.60
2019-05-23T09:42:12.020Z,21.70
2019-05-23T09:44:40.938Z,21.80
2019-05-23T09:47:11.009Z,21.80
2019-05-23T09:49:53.916Z,21.60
2019-05-23T09:52:17.918Z,21.40
2019-05-23T09:54:47.675Z,21.30
2019-05-23T09:57:17.728Z,21.40
2019-05-23T09:59:47.557Z,21.50
2019-05-23T10:02:18.908Z,21.80
2019-05-23T10:05:02.463Z,22.10
2019-05-23T10:07:32.974Z,22.00
2019-05-23T10:10:06.858Z,22.20
2019-05-23T10:12:39.754Z,22.30
2019-05-23T10:16:00.991Z,22.50
2019-05-23T10:17:43.721Z,22.60
2019-05-23T10:20:14.251Z,22.70
2019-05-23T10:22:44.064Z,22.70
2019-05-23T10:25:15.915Z,22.80
2019-05-23T10:27:45.992Z,23.00
2019-05-23T10:30:17.834Z,22.90
2019-05-23T10:36:08.590Z,23.10
2019-05-23T10:38:39.072Z,23.00
2019-05-23T10:41:08.938Z,23.00
2019-05-23T10:43:39.022Z,23.10
2019-05-23T10:46:08.940Z,23.10
2019-05-23T10:48:39.797Z,23.20
2019-05-23T10:51:09.895Z,23.40
2019-05-23T10:55:15.395Z,23.40
2019-05-23T10:56:20.427Z,23.40
2019-05-23T10:58:48.861Z,23.40
2019-05-23T11:01:19.679Z,23.40
2019-05-23T11:03:52.620Z,23.40
2019-05-23T11:06:24.436Z,23.50
2019-05-23T11:08:54.398Z,23.60
2019-05-23T11:11:24.568Z,23.50
2019-05-23T11:13:55.962Z,23.60
2019-05-23T11:16:26.337Z,23.40
2019-05-23T11:18:56.375Z,23.30
2019-05-23T11:21:26.235Z,23.00
2019-05-23T11:23:56.317Z,23.00
2019-05-23T11:26:26.157Z,23.00
2019-05-23T11:28:56.487Z,23.00
2019-05-23T11:31:27.035Z,23.20
2019-05-23T11:33:57.273Z,23.40
2019-05-23T11:36:35.680Z,23.40
2019-05-23T11:38:58.657Z,23.10
2019-05-23T11:41:28.469Z,23.00
2019-05-23T11:43:58.197Z,23.10
2019-05-23T11:46:34.428Z,23.20
2019-05-23T11:49:05.564Z,23.30
2019-05-23T11:51:37.461Z,23.50
2019-05-23T11:54:09.620Z,23.60
2019-05-23T12:13:47.326Z,23.80
2019-05-23T12:17:00.760Z,23.70
2019-05-23T12:22:08.051Z,23.40
2019-05-23T12:24:41.221Z,23.50
2019-05-23T12:27:21.173Z,23.50
2019-05-23T12:29:50.310Z,23.60
2019-05-23T12:32:25.202Z,23.70
2019-05-23T12:35:11.048Z,23.50
2019-05-23T12:37:51.346Z,23.50
2019-05-23T12:40:50.316Z,23.50
2019-05-23T12:43:01.972Z,23.60
2019-05-23T12:45:39.683Z,23.60
2019-05-23T12:48:49.053Z,23.80
2019-05-23T12:51:09.449Z,23.70
2019-05-23T12:53:45.308Z,23.70
2019-05-23T12:56:28.620Z,23.70
2019-05-23T13:02:33.721Z,23.80
2019-05-23T13:05:04.131Z,24.00
2019-05-23T13:07:36.903Z,23.70
2019-05-23T13:10:09.720Z,23.40
2019-05-23T13:12:41.315Z,23.50
2019-05-23T13:15:13.642Z,23.40
2019-05-23T13:17:44.991Z,23.30
2019-05-23T13:20:15.233Z,23.30
2019-05-23T13:22:59.326Z,23.10
2019-05-23T13:25:35.096Z,22.90
2019-05-23T13:28:27.535Z,22.60
2019-05-23T13:30:46.296Z,22.30
2019-05-23T13:33:18.290Z,22.10
2019-05-23T13:35:48.188Z,22.20
2019-05-23T13:38:18.649Z,22.40
2019-05-23T13:40:48.908Z,22.90
2019-05-23T13:43:20.767Z,22.90
2019-05-23T13:45:51.103Z,22.00
2019-05-23T13:48:27.830Z,21.40
2019-05-23T13:50:59.232Z,21.10
2019-05-23T13:53:29.931Z,21.00
2019-05-23T13:56:13.282Z,21.10
2019-05-23T13:58:39.818Z,21.00
2019-05-23T14:01:12.601Z,20.80
2019-05-23T14:03:52.741Z,20.60
2019-05-23T14:06:27.242Z,20.60
2019-05-23T14:08:58.815Z,20.70
2019-05-23T14:11:37.785Z,20.50
2019-05-23T14:14:07.801Z,20.60
2019-05-23T14:16:59.007Z,20.50
2019-05-23T14:19:43.543Z,20.50
2019-05-23T14:22:09.614Z,20.40
2019-05-23T14:24:39.977Z,20.40
2019-05-23T14:27:23.010Z,20.20
2019-05-23T14:29:52.874Z,20.20
2019-05-23T14:32:24.418Z,20.30
2019-05-23T14:34:56.747Z,20.40
2019-05-23T14:37:28.485Z,20.50
2019-05-23T14:40:04.421Z,20.60
2019-05-23T14:42:47.868Z,20.70
2019-05-23T14:45:36.284Z,20.60
2019-05-23T14:48:12.193Z,20.60
2019-05-23T14:51:01.270Z,20.60
2019-05-23T14:53:32.927Z,20.60
2019-05-23T14:56:03.452Z,20.60
2019-05-23T14:58:33.351Z,20.50
2019-05-23T15:01:04.655Z,20.50
2019-05-23T15:03:37.935Z,20.50
2019-05-23T15:06:09.282Z,20.70
2019-05-23T15:08:50.299Z,20.70
2019-05-23T15:11:11.130Z,20.80
2019-05-23T15:13:40.952Z,20.70
2019-05-23T15:16:11.498Z,20.60
2019-05-23T15:18:41.398Z,20.70
2019-05-23T15:21:11.767Z,20.70
2019-05-23T15:23:41.647Z,20.70
2019-05-23T15:26:22.573Z,20.70
2019-05-23T15:28:44.161Z,20.60
2019-05-23T15:31:15.901Z,20.50
2019-05-23T15:33:45.695Z,20.60
2019-05-23T15:36:15.574Z,20.70
2019-05-23T15:38:45.349Z,20.70
2019-05-23T15:41:15.300Z,20.80
2019-05-23T15:43:47.097Z,20.80
2019-05-23T15:46:17.013Z,20.70
2019-05-23T15:48:47.334Z,20.70
2019-05-23T15:51:21.689Z,20.60
2019-05-23T15:53:58.763Z,20.60
2019-05-23T15:56:36.141Z,20.50
2019-05-23T15:59:32.367Z,20.50
2019-05-23T16:02:21.261Z,20.50
2019-05-23T16:04:51.631Z,20.40
2019-05-23T16:07:22.487Z,20.20
2019-05-23T16:09:52.650Z,20.20
2019-05-23T16:12:22.940Z,20.20
2019-05-23T16:14:52.645Z,20.30
2019-05-23T16:17:22.852Z,20.40
2019-05-23T16:19:53.125Z,20.60
2019-05-23T16:22:23.209Z,20.80
2019-05-23T16:24:53.301Z,20.90
2019-05-23T16:27:23.900Z,20.90
2019-05-23T16:29:53.763Z,21.00
2019-05-23T16:32:23.526Z,21.10
2019-05-23T16:34:54.595Z,21.00
2019-05-23T16:37:24.460Z,21.00
2019-05-23T16:40:00.590Z,20.90
2019-05-23T16:42:30.792Z,20.70
2019-05-23T16:45:02.530Z,20.50
2019-05-23T16:47:33.917Z,20.50
2019-05-23T16:50:06.021Z,20.40
2019-05-23T16:52:35.963Z,20.30
2019-05-23T16:55:10.377Z,20.30
2019-05-23T16:57:42.148Z,20.30
2019-05-23T17:00:29.316Z,20.20
2019-05-23T17:03:19.906Z,20.10
2019-05-23T17:05:53.981Z,20.10
2019-05-23T17:08:34.397Z,20.10
2019-05-23T17:11:06.045Z,20.20
2019-05-23T17:13:46.179Z,20.00
2019-05-23T17:16:23.517Z,19.90
2019-05-23T17:18:55.259Z,19.80
2019-05-23T17:21:27.380Z,19.90
2019-05-23T17:24:04.613Z,19.90
2019-05-23T17:26:51.226Z,20.00
2019-05-23T17:29:25.462Z,20.10
2019-05-23T17:31:56.137Z,20.10
2019-05-23T17:34:25.941Z,20.10
2019-05-23T17:36:56.266Z,20.10
2019-05-23T17:39:28.029Z,19.90
2019-05-23T17:41:57.993Z,19.80
2019-05-23T17:44:29.501Z,19.80
2019-05-23T17:46:59.474Z,19.70
2019-05-23T17:49:29.927Z,19.70
2019-05-23T17:52:01.321Z,19.70
2019-05-23T17:54:32.147Z,19.60
2019-05-23T17:57:02.254Z,19.60
2019-05-23T17:59:32.070Z,19.60
2019-05-23T18:02:03.459Z,19.60
2019-05-23T18:04:33.271Z,19.60
2019-05-23T18:07:04.052Z,19.50
2019-05-23T18:09:34.196Z,19.50
2019-05-23T18:12:06.351Z,19.50
2019-05-23T18:14:41.823Z,19.40
2019-05-23T18:17:11.711Z,19.40
2019-05-23T18:19:43.476Z,19.30
2019-05-23T18:22:17.488Z,19.20
2019-05-23T18:24:47.936Z,19.20
2019-05-23T18:27:18.238Z,19.10
2019-05-23T18:29:48.461Z,19.10
2019-05-23T18:32:19.885Z,18.90
2019-05-23T18:34:49.941Z,18.90
2019-05-23T18:37:20.437Z,18.80
2019-05-23T18:39:50.502Z,18.80
2019-05-23T18:42:20.609Z,18.70
2019-05-23T18:44:50.774Z,18.70
2019-05-23T18:47:22.435Z,18.70
2019-05-23T18:49:52.367Z,18.70
2019-05-23T18:52:22.075Z,18.60
2019-05-23T18:54:51.879Z,18.60
2019-05-23T18:57:21.674Z,18.60
2019-05-23T18:59:51.621Z,18.50
2019-05-23T19:02:21.778Z,18.50
2019-05-23T19:04:52.361Z,18.50
2019-05-23T19:07:22.166Z,18.50
2019-05-23T19:09:52.586Z,18.40
2019-05-23T19:13:12.421Z,18.40
2019-05-23T19:16:12.816Z,18.40
2019-05-23T19:18:51.134Z,18.40
2019-05-23T19:21:21.309Z,18.40
2019-05-23T19:23:52.038Z,18.40
2019-05-23T19:26:22.800Z,18.40
2019-05-23T19:28:54.179Z,18.30
2019-05-23T19:31:24.177Z,18.20
2019-05-23T19:33:54.046Z,18.10
2019-05-23T19:36:24.222Z,18.00
2019-05-23T19:38:54.098Z,17.90
2019-05-23T19:41:36.699Z,17.80
2019-05-23T19:43:55.978Z,17.70
2019-05-23T19:46:26.265Z,17.50
2019-05-23T19:48:57.632Z,17.50
2019-05-23T19:51:27.495Z,17.50
2019-05-23T19:53:57.549Z,17.40
2019-05-23T19:56:27.454Z,17.30
2019-05-23T19:58:57.399Z,17.20
2019-05-23T20:01:31.963Z,17.20
2019-05-23T20:04:02.022Z,17.20
2019-05-23T20:06:32.280Z,17.20
2019-05-23T20:09:04.279Z,17.10
2019-05-23T20:11:35.672Z,17.00
2019-05-23T20:14:05.555Z,17.00
2019-05-23T20:16:37.568Z,17.00
2019-05-23T20:19:07.590Z,17.00
2019-05-23T20:21:37.417Z,16.90
2019-05-23T20:24:08.053Z,16.80
2019-05-23T20:26:37.861Z,16.70
2019-05-23T20:29:07.571Z,16.50
2019-05-23T20:31:37.458Z,16.40
2019-05-23T20:34:07.648Z,16.30
2019-05-23T20:36:37.472Z,16.20
2019-05-23T20:39:08.094Z,16.10
2019-05-23T20:41:37.818Z,16.00
2019-05-23T20:44:08.011Z,16.00
2019-05-23T20:46:37.721Z,16.00
2019-05-23T20:49:07.528Z,16.00
2019-05-23T20:51:37.611Z,15.90
2019-05-23T20:54:07.485Z,15.90
2019-05-23T20:56:37.223Z,15.90
2019-05-23T20:59:08.159Z,15.80
2019-05-23T21:01:39.584Z,15.90
2019-05-23T21:04:09.601Z,15.90
2019-05-23T21:06:39.317Z,15.90
2019-05-23T21:09:09.177Z,15.80
2019-05-23T21:11:39.357Z,15.80
2019-05-23T21:14:09.109Z,15.70
2019-05-23T21:16:39.044Z,15.70
2019-05-23T21:19:09.099Z,15.70
2019-05-23T21:21:38.826Z,15.70
2019-05-23T21:24:09.044Z,15.60
2019-05-23T21:26:38.945Z,15.60
2019-05-23T21:29:08.989Z,15.50
2019-05-23T21:31:38.985Z,15.50
2019-05-23T21:34:08.723Z,15.50
2019-05-23T21:36:38.488Z,15.50
2019-05-23T21:39:10.169Z,15.40
2019-05-23T21:41:39.979Z,15.40
2019-05-23T21:44:09.643Z,15.40
2019-05-23T21:46:39.350Z,15.40
2019-05-23T21:49:09.712Z,15.30
2019-05-23T21:51:39.425Z,15.20
2019-05-23T21:54:09.212Z,15.20
2019-05-23T21:56:39.359Z,15.10
2019-05-23T21:59:09.122Z,15.00
2019-05-23T22:01:43.825Z,15.00
2019-05-23T22:04:21.406Z,15.00
2019-05-23T22:06:55.464Z,14.90
2019-05-23T22:09:24.602Z,14.90
2019-05-23T22:11:54.341Z,14.80
2019-05-23T22:14:24.349Z,14.80
2019-05-23T22:16:54.122Z,14.80
2019-05-23T22:19:24.428Z,14.70
2019-05-23T22:21:54.403Z,14.60
2019-05-23T22:24:24.361Z,14.50
2019-05-23T22:26:54.012Z,14.40
2019-05-23T22:29:23.981Z,14.20
2019-05-23T22:31:56.415Z,14.20
2019-05-23T22:34:45.314Z,14.10
2019-05-23T22:37:17.367Z,14.00
2019-05-23T22:39:47.397Z,13.90
2019-05-23T22:42:18.724Z,13.90
2019-05-23T22:44:48.458Z,13.90
2019-05-23T22:47:18.639Z,13.90
2019-05-23T22:49:48.608Z,13.80
2019-05-23T22:52:18.413Z,13.70
2019-05-23T22:54:48.459Z,13.70
2019-05-23T22:57:18.181Z,13.60
2019-05-23T22:59:48.652Z,13.60
2019-05-23T23:02:18.391Z,13.50
2019-05-23T23:04:48.030Z,13.40
2019-05-23T23:07:18.189Z,13.40
2019-05-23T23:09:48.077Z,13.40
2019-05-23T23:12:17.817Z,13.40
2019-05-23T23:14:47.521Z,13.30
2019-05-23T23:17:18.907Z,13.30
2019-05-23T23:19:48.870Z,13.30
2019-05-23T23:22:18.718Z,13.30
2019-05-23T23:24:48.429Z,13.30
2019-05-23T23:27:18.090Z,13.30
2019-05-23T23:29:47.888Z,13.30
2019-05-23T23:32:17.613Z,13.20
2019-05-23T23:34:47.260Z,13.10
2019-05-23T23:37:17.048Z,13.20
2019-05-23T23:39:46.755Z,13.10
2019-05-23T23:42:16.485Z,13.10
2019-05-23T23:44:45.658Z,13.00
2019-05-23T23:47:33.571Z,12.90
2019-05-23T23:50:23.004Z,12.80
2019-05-23T23:53:10.881Z,12.80
2019-05-23T23:55:58.586Z,12.80
2019-05-23T23:58:27.701Z,12.80
